Time;durP1;ratioP1;P1;durP2;ratioP2;P2;SDS_P1;SDS_P2;PMS_P1;PMS_P2;Temp;Humidity;BMP_temperature;BMP_pressure;BME280_temperature;BME280_humidity;BME280_pressure;Samples;Min_cycle;Max_cycle;Signal;HPM_P1;HPM_P2
2021/03/25 00:00:59;;;;;;;5.93;5.15;;;13.20;45.60;;;;;;4996896;28;20197;-71
2021/03/25 00:03:25;;;;;;;8.10;5.43;;;13.20;45.80;;;;;;5001746;28;21476;-70
2021/03/25 00:05:52;;;;;;;8.82;4.55;;;13.20;45.70;;;;;;5000346;28;20093;-71
2021/03/25 00:08:22;;;;;;;7.60;4.50;;;13.20;45.90;;;;;;4998798;28;20050;-70
2021/03/25 00:10:48;;;;;;;7.97;5.40;;;13.10;46.30;;;;;;4996707;28;20050;-70
2021/03/25 00:13:14;;;;;;;7.88;5.45;;;13.10;46.40;;;;;;4997604;28;20042;-71
2021/03/25 00:15:40;;;;;;;7.90;5.03;;;13.10;46.30;;;;;;4999884;28;20045;-70
2021/03/25 00:18:07;;;;;;;6.65;4.60;;;13.10;46.70;;;;;;5003178;28;20124;-70
2021/03/25 00:20:33;;;;;;;6.25;4.90;;;13.10;46.50;;;;;;4999825;28;20561;-70
2021/03/25 00:22:59;;;;;;;8.32;4.82;;;13.10;47.00;;;;;;5000585;28;20499;-71
2021/03/25 00:25:31;;;;;;;7.18;5.00;;;13.00;46.90;;;;;;5000993;28;20084;-71
2021/03/25 00:27:57;;;;;;;11.60;4.78;;;13.00;47.00;;;;;;5005229;28;20483;-71
2021/03/25 00:30:27;;;;;;;7.97;5.35;;;13.00;46.60;;;;;;4997234;28;20060;-71
2021/03/25 00:32:54;;;;;;;6.82;4.88;;;13.10;47.30;;;;;;5001196;28;20124;-71
2021/03/25 00:35:21;;;;;;;6.10;4.90;;;13.00;47.00;;;;;;5005104;28;20038;-70
2021/03/25 00:37:47;;;;;;;7.63;4.90;;;13.00;47.10;;;;;;4992596;28;20429;-71
2021/03/25 00:40:13;;;;;;;9.85;5.30;;;13.00;47.00;;;;;;5002266;28;20097;-70
2021/03/25 00:42:39;;;;;;;6.70;4.90;;;13.00;47.50;;;;;;4997700;28;20463;-70
2021/03/25 00:45:30;;;;;;;8.68;4.95;;;13.00;47.70;;;;;;4998896;28;20039;-66
2021/03/25 00:47:56;;;;;;;7.30;5.00;;;13.00;47.50;;;;;;4991128;28;20097;-71
2021/03/25 00:50:27;;;;;;;5.35;4.85;;;13.00;47.60;;;;;;5004057;28;20054;-70
2021/03/25 00:53:00;;;;;;;9.73;5.15;;;13.00;47.80;;;;;;4997646;28;20038;-70
2021/03/25 00:55:26;;;;;;;7.15;4.82;;;13.10;48.30;;;;;;5002388;28;20049;-70
2021/03/25 00:57:52;;;;;;;7.05;5.03;;;12.90;47.60;;;;;;5003576;28;20049;-71
2021/03/25 01:00:23;;;;;;;5.90;5.28;;;12.90;48.10;;;;;;4996895;28;20062;-70
2021/03/25 01:02:49;;;;;;;8.35;4.90;;;12.90;48.40;;;;;;4998073;28;20042;-71
2021/03/25 01:08:36;;;;;;;6.05;4.80;;;12.90;49.20;;;;;;4952407;28;20096;-71
2021/03/25 01:11:16;;;;;;;9.65;5.60;;;12.90;48.50;;;;;;5009171;28;20062;-71
2021/03/25 01:13:45;;;;;;;8.40;6.03;;;12.80;48.90;;;;;;4987955;28;20042;-71
2021/03/25 01:16:31;;;;;;;9.30;5.50;;;12.90;48.70;;;;;;5007869;28;20096;-71
2021/03/25 01:18:57;;;;;;;7.88;5.38;;;12.80;49.10;;;;;;4999410;28;20065;-71
2021/03/25 01:21:24;;;;;;;10.30;6.03;;;12.80;48.70;;;;;;5005203;28;20549;-70
2021/03/25 01:23:49;;;;;;;8.38;4.90;;;12.80;49.30;;;;;;4998807;28;20173;-71
2021/03/25 01:26:15;;;;;;;12.55;5.50;;;12.80;49.10;;;;;;5003431;28;20117;-71
2021/03/25 01:28:41;;;;;;;7.10;5.45;;;12.80;49.10;;;;;;5002469;28;20050;-72
2021/03/25 01:31:06;;;;;;;7.35;5.47;;;12.80;49.00;;;;;;5003998;28;20046;-71
2021/03/25 01:33:32;;;;;;;8.32;6.53;;;12.80;49.10;;;;;;5000860;28;20052;-71
2021/03/25 01:35:58;;;;;;;9.35;6.00;;;12.80;49.10;;;;;;5008993;28;20105;-71
2021/03/25 01:38:24;;;;;;;11.70;6.22;;;12.70;49.10;;;;;;5005559;28;20050;-71
2021/03/25 01:40:54;;;;;;;10.07;5.90;;;12.80;48.90;;;;;;5009341;28;20050;-71
2021/03/25 01:43:27;;;;;;;9.10;6.03;;;12.60;49.10;;;;;;5003442;28;20586;-70
2021/03/25 01:45:58;;;;;;;8.82;5.85;;;12.70;49.50;;;;;;5010013;28;20042;-71
2021/03/25 01:48:32;;;;;;;7.18;5.78;;;12.60;50.10;;;;;;4997501;28;20500;-71
2021/03/25 01:51:07;;;;;;;9.25;5.55;;;12.60;49.40;;;;;;5007968;28;20045;-71
2021/03/25 01:53:45;;;;;;;;;;;12.70;49.50;;;;;;5016441;28;20878;-71
2021/03/25 01:56:34;;;;;;;8.32;6.05;;;12.60;50.20;;;;;;5007595;28;19952;-70
2021/03/25 01:59:11;;;;;;;9.70;5.95;;;12.60;50.40;;;;;;5003714;28;20041;-71
2021/03/25 02:01:45;;;;;;;9.02;6.18;;;12.50;50.10;;;;;;5007143;28;20052;-71
2021/03/25 02:04:11;;;;;;;9.10;6.43;;;12.50;49.70;;;;;;5004646;28;20049;-70
2021/03/25 02:06:43;;;;;;;11.93;6.95;;;12.60;49.10;;;;;;5008690;28;20034;-71
2021/03/25 02:09:15;;;;;;;11.75;8.05;;;12.50;49.20;;;;;;5003258;28;20115;-69
2021/03/25 02:12:07;;;;;;;12.75;8.65;;;12.50;49.00;;;;;;5009414;28;20041;-71
2021/03/25 02:14:57;;;;;;;11.43;8.10;;;12.50;48.80;;;;;;5005115;28;23320;-71
2021/03/25 02:17:45;;;;;;;17.08;9.57;;;12.40;48.90;;;;;;4981432;28;20041;-71
2021/03/25 02:20:28;;;;;;;11.90;8.82;;;12.40;49.50;;;;;;4999462;28;20062;-68
2021/03/25 02:22:53;;;;;;;14.95;9.32;;;12.40;49.60;;;;;;5002258;28;20047;-69
2021/03/25 02:26:08;;;;;;;14.57;8.75;;;12.40;48.80;;;;;;5002599;28;20108;-69
2021/03/25 02:28:39;;;;;;;12.35;8.57;;;12.40;49.20;;;;;;4981687;28;20042;-69
2021/03/25 02:31:12;;;;;;;11.48;8.38;;;12.30;49.40;;;;;;4998971;28;20034;-69
2021/03/25 02:33:40;;;;;;;12.60;8.30;;;12.40;49.70;;;;;;5003734;28;20037;-64
2021/03/25 02:36:10;;;;;;;9.55;7.95;;;12.30;49.50;;;;;;5001913;28;20369;-69
2021/03/25 02:38:44;;;;;;;13.60;8.65;;;12.40;49.60;;;;;;5003903;28;20053;-69
2021/03/25 02:41:20;;;;;;;13.35;8.93;;;12.30;49.50;;;;;;4999693;28;20472;-68
2021/03/25 02:44:09;;;;;;;15.23;10.27;;;12.30;49.80;;;;;;5001777;28;20045;-69
2021/03/25 02:46:50;;;;;;;15.50;11.15;;;12.20;49.50;;;;;;4999929;28;20057;-69
2021/03/25 02:49:19;;;;;;;15.75;11.75;;;12.20;49.10;;;;;;4983443;28;20037;-69
2021/03/25 02:52:01;;;;;;;15.65;10.95;;;12.10;49.40;;;;;;5004313;28;20460;-69
2021/03/25 02:54:27;;;;;;;17.02;11.80;;;12.20;49.50;;;;;;5000780;28;20037;-69
2021/03/25 02:57:02;;;;;;;18.45;12.35;;;12.10;49.50;;;;;;5000548;28;20049;-69
2021/03/25 02:59:31;;;;;;;;;;;12.10;49.60;;;;;;5005926;28;20125;-69
2021/03/25 03:02:04;;;;;;;16.95;12.85;;;12.00;50.10;;;;;;4997549;28;19918;-69
2021/03/25 03:04:34;;;;;;;17.02;12.68;;;12.00;50.10;;;;;;5003222;28;20393;-69
2021/03/25 03:07:07;;;;;;;19.75;12.27;;;12.00;50.00;;;;;;5001917;28;20380;-69
2021/03/25 03:09:44;;;;;;;16.48;12.98;;;12.00;50.30;;;;;;4998307;28;20046;-69
2021/03/25 03:12:16;;;;;;;15.25;11.95;;;12.00;50.20;;;;;;4995690;28;20046;-68
2021/03/25 03:14:46;;;;;;;17.92;12.57;;;12.10;50.30;;;;;;4999507;28;20037;-69
2021/03/25 03:17:40;;;;;;;16.15;12.75;;;12.00;50.20;;;;;;4994699;28;20037;-68
2021/03/25 03:20:09;;;;;;;16.67;12.57;;;12.00;50.90;;;;;;5002074;28;20065;-68
2021/03/25 03:22:36;;;;;;;19.00;12.05;;;12.00;50.20;;;;;;4996719;28;20034;-68
2021/03/25 03:25:10;;;;;;;20.00;12.85;;;12.00;50.40;;;;;;5003904;28;20125;-68
2021/03/25 03:27:45;;;;;;;16.77;11.90;;;12.00;50.60;;;;;;4986382;28;20053;-68
2021/03/25 03:30:16;;;;;;;21.10;14.23;;;12.00;51.00;;;;;;5004645;28;20061;-68
2021/03/25 03:33:00;;;;;;;17.95;12.90;;;12.00;50.80;;;;;;4997100;28;20072;-68
2021/03/25 03:35:40;;;;;;;13.77;11.98;;;12.00;51.20;;;;;;5005463;28;20080;-68
2021/03/25 03:38:12;;;;;;;18.08;12.88;;;12.10;51.10;;;;;;4998654;28;20442;-68
2021/03/25 03:40:41;;;;;;;18.40;12.63;;;12.00;50.70;;;;;;5000216;28;20137;-60
2021/03/25 03:43:12;;;;;;;15.93;12.02;;;12.00;50.90;;;;;;5002219;28;20046;-68
2021/03/25 03:46:02;;;;;;;15.52;12.15;;;12.00;50.90;;;;;;5002706;28;20042;-62
2021/03/25 03:48:38;;;;;;;20.33;12.43;;;12.00;50.90;;;;;;4996991;28;20046;-68
2021/03/25 03:51:07;;;;;;;17.02;12.30;;;12.00;51.90;;;;;;4999251;28;20149;-68
2021/03/25 03:53:34;;;;;;;18.52;11.60;;;11.90;50.80;;;;;;5000541;28;20540;-69
2021/03/25 03:56:11;;;;;;;18.13;12.05;;;11.90;51.00;;;;;;5007005;28;20041;-69
2021/03/25 03:58:44;;;;;;;13.88;10.20;;;11.90;51.20;;;;;;5019674;28;20046;-69
2021/03/25 04:01:39;;;;;;;15.47;10.50;;;11.90;51.30;;;;;;5003439;28;20054;-68
2021/03/25 04:04:13;;;;;;;15.73;9.82;;;12.00;51.50;;;;;;4995331;28;20063;-68
2021/03/25 04:06:45;;;;;;;14.75;9.48;;;11.90;51.60;;;;;;5000848;28;20505;-69
2021/03/25 04:09:14;;;;;;;12.80;9.90;;;11.90;52.00;;;;;;4999015;28;20034;-68
2021/03/25 04:11:50;;;;;;;12.30;8.32;;;11.90;51.70;;;;;;4999639;28;20046;-68
2021/03/25 04:14:41;;;;;;;12.45;8.85;;;11.90;52.50;;;;;;4997800;28;20042;-68
2021/03/25 04:17:08;;;;;;;11.68;8.75;;;11.80;52.40;;;;;;4997942;28;20449;-68
2021/03/25 04:19:41;;;;;;;11.97;8.43;;;11.90;52.00;;;;;;5001582;28;20046;-68
2021/03/25 04:22:28;;;;;;;12.35;8.13;;;11.90;52.00;;;;;;5003745;28;20069;-69
2021/03/25 04:25:07;;;;;;;10.85;8.25;;;11.90;52.80;;;;;;4976768;28;20069;-68
2021/03/25 04:28:16;;;;;;;14.65;8.40;;;11.90;52.70;;;;;;5004708;28;20042;-69
2021/03/25 04:30:50;;;;;;;11.10;7.82;;;11.90;54.00;;;;;;4931428;28;20085;-67
2021/03/25 04:33:18;;;;;;;9.68;7.70;;;11.90;52.90;;;;;;4978744;28;20170;-69
2021/03/25 04:35:45;;;;;;;15.25;8.10;;;11.90;52.60;;;;;;4981637;28;20120;-68
2021/03/25 04:38:14;;;;;;;15.05;8.13;;;11.90;52.70;;;;;;5008186;28;20373;-68
2021/03/25 04:40:40;;;;;;;11.70;7.57;;;11.80;52.90;;;;;;5005105;28;20042;-68
2021/03/25 04:43:06;;;;;;;10.97;7.20;;;11.80;53.10;;;;;;5003315;28;20038;-68
2021/03/25 04:46:23;;;;;;;11.93;7.55;;;11.80;53.20;;;;;;5002644;28;20041;-68
2021/03/25 04:48:49;;;;;;;9.95;7.55;;;11.80;54.10;;;;;;4918072;28;20411;-68
2021/03/25 04:51:21;;;;;;;11.05;7.35;;;11.70;53.30;;;;;;5005837;28;20113;-68
2021/03/25 04:53:50;;;;;;;13.68;8.07;;;11.70;53.40;;;;;;5003925;28;20064;-69
2021/03/25 04:56:22;;;;;;;10.93;8.13;;;11.70;53.80;;;;;;5000900;28;20124;-68
2021/03/25 04:58:54;;;;;;;12.87;7.10;;;11.70;54.20;;;;;;4999664;28;20042;-69
2021/03/25 05:01:23;;;;;;;10.13;7.00;;;11.70;54.20;;;;;;5004613;28;20053;-69
2021/03/25 05:03:53;;;;;;;14.48;7.03;;;11.70;54.60;;;;;;5005670;28;20054;-69
2021/03/25 05:06:21;;;;;;;12.68;7.05;;;11.70;54.60;;;;;;4999467;28;20049;-69
2021/03/25 05:08:49;;;;;;;10.63;7.00;;;11.70;54.60;;;;;;5014412;28;20046;-69
2021/03/25 05:11:21;;;;;;;12.13;7.50;;;11.70;54.80;;;;;;5003671;28;20042;-68
2021/03/25 05:13:47;;;;;;;9.53;6.50;;;11.80;54.70;;;;;;5004285;28;20044;-68
2021/03/25 05:16:27;;;;;;;13.63;7.80;;;11.70;54.40;;;;;;5008858;28;20125;-67
2021/03/25 05:19:18;;;;;;;10.75;7.15;;;11.70;55.20;;;;;;5007831;28;20407;-68
2021/03/25 05:21:56;;;;;;;13.55;7.68;;;11.60;55.40;;;;;;4974837;28;20038;-66
2021/03/25 05:24:44;;;;;;;10.85;7.20;;;11.70;55.70;;;;;;5005457;28;20042;-68
2021/03/25 05:27:15;;;;;;;10.85;6.38;;;11.60;55.50;;;;;;5003184;28;20030;-67
2021/03/25 05:29:43;;;;;;;13.43;7.22;;;11.60;55.20;;;;;;5006831;28;20057;-67
2021/03/25 05:32:11;;;;;;;12.73;7.45;;;11.60;55.30;;;;;;4997207;28;20038;-64
2021/03/25 05:34:39;;;;;;;9.30;6.87;;;11.60;55.40;;;;;;5009715;28;20038;-68
2021/03/25 05:37:07;;;;;;;10.77;7.05;;;11.60;55.50;;;;;;5006298;28;20058;-68
2021/03/25 05:39:33;;;;;;;13.05;7.97;;;11.60;55.60;;;;;;5004896;28;20081;-69
2021/03/25 05:42:05;;;;;;;13.45;8.40;;;11.70;55.10;;;;;;5008289;28;20046;-69
2021/03/25 05:45:07;;;;;;;11.10;7.45;;;11.60;55.40;;;;;;5001218;28;20053;-69
2021/03/25 05:47:47;;;;;;;11.20;7.53;;;11.70;56.00;;;;;;4978067;28;20042;-70
2021/03/25 05:50:38;;;;;;;12.70;7.65;;;11.60;55.80;;;;;;5004961;28;20042;-68
2021/03/25 05:53:28;;;;;;;14.48;8.02;;;11.70;56.20;;;;;;4999751;28;20126;-68
2021/03/25 05:56:21;;;;;;;13.13;7.95;;;11.70;56.70;;;;;;4966908;28;20045;-68
2021/03/25 05:58:53;;;;;;;11.30;8.48;;;11.70;56.80;;;;;;4979120;28;20108;-68
2021/03/25 06:01:34;;;;;;;12.15;7.90;;;11.70;56.00;;;;;;5006034;28;20045;-68
2021/03/25 06:04:19;;;;;;;14.73;7.90;;;11.70;56.70;;;;;;5014959;28;20376;-68
2021/03/25 06:07:09;;;;;;;13.90;7.32;;;11.70;56.20;;;;;;4978643;28;20129;-68
2021/03/25 06:09:56;;;;;;;16.08;8.68;;;11.70;56.40;;;;;;5003631;28;20121;-69
2021/03/25 06:12:30;;;;;;;10.75;7.50;;;11.70;57.00;;;;;;4978916;28;20133;-68
2021/03/25 06:15:54;;;;;;;11.95;8.05;;;11.70;56.20;;;;;;5000396;28;20030;-68
2021/03/25 06:18:47;;;;;;;12.03;7.93;;;11.70;56.90;;;;;;4918245;28;20044;-68
2021/03/25 06:21:26;;;;;;;15.50;8.45;;;11.70;56.50;;;;;;5006317;28;20045;-68
2021/03/25 06:24:19;;;;;;;15.33;8.83;;;11.80;56.20;;;;;;5002202;28;20049;-69
2021/03/25 06:27:00;;;;;;;13.27;8.53;;;11.80;56.50;;;;;;4980951;28;20038;-69
2021/03/25 06:29:32;;;;;;;17.83;9.60;;;11.90;56.40;;;;;;4997660;28;20038;-68
2021/03/25 06:32:45;;;;;;;12.70;9.45;;;11.90;56.20;;;;;;4986013;28;22339;-69
2021/03/25 06:35:16;;;;;;;13.90;8.32;;;11.80;56.80;;;;;;4911217;28;20040;-68
2021/03/25 06:38:01;;;;;;;14.15;9.57;;;11.80;56.70;;;;;;5004329;28;20034;-68
2021/03/25 06:40:36;;;;;;;17.42;10.55;;;11.80;56.70;;;;;;5000392;28;20092;-68
2021/03/25 06:43:14;;;;;;;17.25;9.57;;;11.90;55.90;;;;;;5007275;28;20400;-69
2021/03/25 06:45:47;;;;;;;15.93;9.95;;;12.00;56.00;;;;;;5000830;28;20380;-68
2021/03/25 06:48:28;;;;;;;11.48;9.50;;;11.90;55.90;;;;;;5001243;28;20041;-69
2021/03/25 06:50:54;;;;;;;15.35;10.23;;;12.00;55.80;;;;;;4994676;28;20117;-70
2021/03/25 06:53:28;;;;;;;12.02;10.10;;;12.00;55.80;;;;;;4998492;28;20663;-69
2021/03/25 06:56:07;;;;;;;15.63;11.15;;;12.10;56.20;;;;;;4989878;28;20880;-70
2021/03/25 06:58:47;;;;;;;16.77;11.73;;;12.10;55.90;;;;;;4996108;28;20108;-70
2021/03/25 07:01:25;;;;;;;20.17;10.93;;;12.10;55.90;;;;;;4999699;28;20046;-69
2021/03/25 07:03:54;;;;;;;16.73;11.43;;;12.10;55.70;;;;;;5005107;28;20030;-69
2021/03/25 07:06:24;;;;;;;16.05;11.60;;;12.20;55.40;;;;;;4998273;28;20113;-69
2021/03/25 07:08:52;;;;;;;19.13;13.23;;;12.20;55.80;;;;;;5003854;28;20046;-70
2021/03/25 07:11:19;;;;;;;17.10;11.55;;;12.20;55.70;;;;;;4999076;28;20068;-69
2021/03/25 07:13:49;;;;;;;17.00;11.65;;;12.30;55.30;;;;;;5005558;28;20500;-69
2021/03/25 07:16:15;;;;;;;16.00;12.00;;;12.30;55.60;;;;;;5002713;28;20096;-70
2021/03/25 07:18:58;;;;;;;16.60;13.10;;;12.30;55.80;;;;;;5003530;28;20045;-70
2021/03/25 07:21:28;;;;;;;20.00;13.23;;;12.30;56.40;;;;;;5001597;28;20042;-69
2021/03/25 07:23:56;;;;;;;20.30;15.25;;;12.40;55.40;;;;;;5004695;28;20044;-69
2021/03/25 07:26:35;;;;;;;24.40;16.23;;;12.40;54.80;;;;;;4997751;28;20054;-69
2021/03/25 07:29:12;;;;;;;23.83;16.77;;;12.50;55.00;;;;;;5001451;28;20064;-69
2021/03/25 07:31:41;;;;;;;21.38;14.82;;;12.40;54.80;;;;;;4998264;28;20065;-69
2021/03/25 07:34:07;;;;;;;22.70;13.70;;;12.50;54.80;;;;;;5003518;28;20034;-69
2021/03/25 07:36:52;;;;;;;18.35;12.05;;;12.60;55.00;;;;;;5005640;28;20514;-69
2021/03/25 07:39:32;;;;;;;14.98;10.57;;;12.60;55.40;;;;;;4970199;28;20038;-69
2021/03/25 07:41:58;;;;;;;17.40;11.27;;;12.50;56.20;;;;;;4992482;28;20124;-71
2021/03/25 07:44:24;;;;;;;17.17;11.52;;;12.50;55.70;;;;;;4994624;28;20045;-70
2021/03/25 07:46:54;;;;;;;13.52;10.35;;;12.60;55.40;;;;;;5001794;28;20034;-69
2021/03/25 07:49:22;;;;;;;12.18;9.57;;;12.60;55.90;;;;;;4997347;28;20044;-69
2021/03/25 07:51:57;;;;;;;17.60;9.88;;;12.60;56.00;;;;;;5002817;28;20547;-69
2021/03/25 07:54:42;;;;;;;20.10;11.52;;;12.70;55.60;;;;;;4999704;28;20117;-69
2021/03/25 07:57:19;;;;;;;13.75;9.25;;;12.80;56.30;;;;;;4997884;28;20038;-69
2021/03/25 07:59:51;;;;;;;17.23;11.15;;;12.70;55.70;;;;;;4971396;28;20069;-69
2021/03/25 08:02:33;;;;;;;13.20;9.82;;;12.70;54.90;;;;;;4997413;28;20038;-69
2021/03/25 08:05:24;;;;;;;17.73;10.80;;;12.90;54.60;;;;;;4949273;28;20069;-68
2021/03/25 08:07:54;;;;;;;14.75;10.25;;;12.90;54.10;;;;;;4969220;28;20054;-68
2021/03/25 08:10:36;;;;;;;17.38;10.63;;;12.90;53.90;;;;;;4997673;28;20037;-68
2021/03/25 08:13:11;;;;;;;19.17;12.10;;;12.90;53.40;;;;;;4997598;28;20056;-70
2021/03/25 08:15:41;;;;;;;17.52;11.07;;;12.90;53.40;;;;;;4996665;28;20363;-70
2021/03/25 08:18:44;;;;;;;17.55;11.60;;;13.00;53.40;;;;;;4993489;28;20045;-67
2021/03/25 08:21:24;;;;;;;16.13;11.45;;;13.10;54.00;;;;;;4952734;28;20541;-69
2021/03/25 08:24:08;;;;;;;17.95;11.40;;;13.10;53.10;;;;;;4992080;28;20084;-70
2021/03/25 08:27:07;;;;;;;14.23;10.97;;;13.00;52.80;;;;;;4997906;28;20093;-69
2021/03/25 08:29:48;;;;;;;15.93;11.70;;;13.00;52.80;;;;;;4971060;28;20061;-69
2021/03/25 08:32:30;;;;;;;16.50;11.63;;;13.10;53.00;;;;;;4994006;28;20496;-69
2021/03/25 08:35:11;;;;;;;18.10;12.70;;;13.20;52.60;;;;;;4988863;28;20050;-69
2021/03/25 08:38:00;;;;;;;16.50;12.13;;;13.10;52.50;;;;;;4991886;28;20068;-68
2021/03/25 08:40:44;;;;;;;16.35;11.55;;;13.30;52.00;;;;;;4967259;28;20077;-69
2021/03/25 08:43:37;;;;;;;16.92;12.13;;;13.30;52.00;;;;;;4994410;28;20121;-68
2021/03/25 08:46:08;;;;;;;14.32;10.85;;;13.50;52.10;;;;;;4966261;28;20045;-68
2021/03/25 08:49:06;;;;;;;18.38;10.73;;;13.50;51.60;;;;;;4998565;28;20044;-68
2021/03/25 08:51:39;;;;;;;14.18;10.95;;;13.60;51.10;;;;;;4979096;28;20041;-68
2021/03/25 08:54:36;;;;;;;15.20;11.20;;;13.60;51.00;;;;;;4995397;28;20225;-68
2021/03/25 08:57:13;;;;;;;13.13;10.45;;;13.60;50.60;;;;;;4973212;28;20039;-68
2021/03/25 09:00:00;;;;;;;14.88;10.63;;;13.70;50.30;;;;;;4994107;28;20046;-68
2021/03/25 09:02:34;;;;;;;13.88;10.45;;;13.80;49.70;;;;;;4972986;28;20042;-68
2021/03/25 09:05:38;;;;;;;17.27;12.10;;;13.90;49.10;;;;;;4993934;28;20609;-69
2021/03/25 09:08:11;;;;;;;16.10;12.23;;;14.00;48.10;;;;;;4988047;28;20070;-70
2021/03/25 09:10:46;;;;;;;16.83;12.10;;;14.00;48.60;;;;;;4992432;28;20042;-68
2021/03/25 09:13:16;;;;;;;20.65;12.73;;;14.00;48.00;;;;;;5002703;28;20100;-69
2021/03/25 09:15:43;;;;;;;19.63;13.20;;;14.00;48.20;;;;;;4994710;28;20038;-68
2021/03/25 09:18:14;;;;;;;18.50;13.27;;;14.00;48.60;;;;;;5001433;28;20038;-69
2021/03/25 09:20:45;;;;;;;19.63;13.02;;;14.10;48.00;;;;;;4997127;28;20053;-70
2021/03/25 09:23:30;;;;;;;19.02;13.00;;;14.20;47.70;;;;;;5000888;28;20042;-70
2021/03/25 09:26:16;;;;;;;18.60;13.85;;;14.30;47.10;;;;;;4994256;28;20069;-70
2021/03/25 09:29:01;;;;;;;18.80;14.27;;;14.40;46.10;;;;;;4991304;28;20050;-70
2021/03/25 09:31:46;;;;;;;17.33;13.77;;;14.40;45.30;;;;;;4968766;28;20136;-70
2021/03/25 09:34:12;;;;;;;20.25;15.95;;;14.40;45.60;;;;;;4993213;28;20042;-71
2021/03/25 09:36:41;;;;;;;19.83;15.15;;;14.50;46.00;;;;;;4994983;28;20439;-70
2021/03/25 09:39:07;;;;;;;20.52;15.20;;;14.50;45.60;;;;;;4984158;28;20034;-71
2021/03/25 09:41:35;;;;;;;21.52;15.50;;;14.50;45.70;;;;;;4994934;28;20056;-70
2021/03/25 09:44:10;;;;;;;21.35;16.02;;;14.60;45.10;;;;;;4995496;28;20045;-71
2021/03/25 09:46:54;;;;;;;22.38;15.95;;;14.70;45.30;;;;;;4998175;28;20121;-70
2021/03/25 09:49:20;;;;;;;21.15;16.33;;;14.60;44.70;;;;;;4974416;28;20045;-70
2021/03/25 09:54:52;;;;;;;19.00;15.60;;;14.90;44.80;;;;;;4994004;28;20136;-71
2021/03/25 09:57:30;;;;;;;20.98;16.13;;;15.00;45.00;;;;;;4972197;28;20586;-71
2021/03/25 10:00:04;;;;;;;25.65;16.95;;;15.00;44.70;;;;;;5000043;28;20046;-71
2021/03/25 10:02:41;;;;;;;22.50;15.98;;;15.00;44.60;;;;;;4989998;28;20050;-71
2021/03/25 10:05:17;;;;;;;19.25;15.30;;;15.10;44.30;;;;;;4992618;28;20045;-71
2021/03/25 10:07:43;;;;;;;22.30;16.17;;;15.30;44.50;;;;;;4988986;28;20412;-71
2021/03/25 10:10:30;;;;;;;24.73;15.38;;;15.40;43.00;;;;;;4994837;28;20045;-72
2021/03/25 10:13:03;;;;;;;21.13;16.05;;;15.40;42.90;;;;;;4949562;28;20469;-70
2021/03/25 10:15:41;;;;;;;22.35;16.83;;;15.40;42.00;;;;;;4985435;28;20124;-73
2021/03/25 10:18:12;;;;;;;25.33;17.23;;;15.40;42.60;;;;;;4990747;28;20128;-70
2021/03/25 10:20:44;;;;;;;21.63;17.45;;;15.50;42.70;;;;;;4983691;28;20077;-70
2021/03/25 10:23:22;;;;;;;20.30;16.60;;;15.50;41.90;;;;;;4992527;28;20039;-70
2021/03/25 10:25:51;;;;;;;21.02;16.83;;;15.60;42.50;;;;;;4972726;28;20056;-70
2021/03/25 10:28:24;;;;;;;20.65;16.30;;;15.70;42.20;;;;;;4982539;28;20876;-70
2021/03/25 10:30:59;;;;;;;21.98;16.13;;;15.70;40.90;;;;;;4981531;28;20042;-70
2021/03/25 10:33:27;;;;;;;21.52;16.05;;;15.70;41.40;;;;;;4992506;28;20079;-70
2021/03/25 10:36:17;;;;;;;20.65;15.38;;;15.80;40.30;;;;;;4989587;28;20073;-70
2021/03/25 10:38:51;;;;;;;21.65;16.88;;;15.80;40.10;;;;;;4976680;28;20052;-69
2021/03/25 10:41:34;;;;;;;18.02;14.52;;;15.90;40.50;;;;;;4991458;28;20046;-70
2021/03/25 10:44:33;;;;;;;24.27;14.52;;;16.00;40.00;;;;;;4993618;28;20034;-70
2021/03/25 10:47:06;;;;;;;20.88;15.93;;;16.10;39.50;;;;;;4968530;28;20096;-69
2021/03/25 10:49:48;;;;;;;20.85;15.55;;;16.30;39.80;;;;;;4991259;28;20045;-69
2021/03/25 10:52:40;;;;;;;22.13;16.05;;;16.30;39.40;;;;;;5001344;28;20044;-69
2021/03/25 10:55:20;;;;;;;18.58;14.82;;;16.50;39.00;;;;;;4993348;28;20137;-69
2021/03/25 10:57:48;;;;;;;16.15;13.90;;;16.60;39.30;;;;;;4977211;28;20038;-69
2021/03/25 11:00:17;;;;;;;19.60;14.85;;;16.70;39.00;;;;;;4989907;28;20053;-68
2021/03/25 11:02:45;;;;;;;20.80;14.98;;;16.70;38.30;;;;;;4993802;28;20046;-69
2021/03/25 11:05:25;;;;;;;27.83;16.35;;;16.70;38.50;;;;;;4978162;28;20417;-69
2021/03/25 11:07:57;;;;;;;21.05;16.17;;;16.90;38.20;;;;;;4961574;28;20075;-70
2021/03/25 11:10:30;;;;;;;22.30;17.05;;;17.00;38.40;;;;;;4995722;28;20129;-70
2021/03/25 11:13:00;;;;;;;22.10;18.02;;;16.90;38.50;;;;;;4995856;28;20046;-69
2021/03/25 11:15:36;;;;;;;24.13;17.10;;;17.10;38.00;;;;;;4977963;28;20034;-68
2021/03/25 11:18:17;;;;;;;21.40;17.88;;;17.30;37.80;;;;;;4994934;28;20065;-68
2021/03/25 11:20:43;;;;;;;20.92;17.10;;;17.40;37.10;;;;;;4988633;28;22130;-68
2021/03/25 11:23:13;;;;;;;20.13;17.92;;;17.50;37.40;;;;;;4996415;28;20038;-69
2021/03/25 11:25:39;;;;;;;23.88;18.17;;;17.60;37.10;;;;;;4994958;28;20062;-68
2021/03/25 11:28:17;;;;;;;24.10;18.45;;;17.50;36.70;;;;;;4992381;28;20142;-69
2021/03/25 11:30:48;;;;;;;22.45;17.80;;;17.70;36.30;;;;;;4968393;28;20069;-68
2021/03/25 11:33:24;;;;;;;42.00;19.33;;;17.60;37.00;;;;;;4990684;28;20391;-68
2021/03/25 11:35:51;;;;;;;26.92;17.52;;;17.80;36.30;;;;;;4992349;28;20443;-68
2021/03/25 11:38:25;;;;;;;25.00;19.05;;;17.90;36.30;;;;;;4991475;28;20125;-68
2021/03/25 11:40:58;;;;;;;23.88;18.65;;;17.90;35.60;;;;;;4993628;28;20046;-67
2021/03/25 11:43:52;;;;;;;24.95;17.77;;;18.20;35.00;;;;;;4995397;28;20049;-68
2021/03/25 11:46:45;;;;;;;21.98;19.10;;;18.30;34.80;;;;;;4976062;28;20463;-68
2021/03/25 11:49:19;;;;;;;26.63;19.85;;;18.40;33.90;;;;;;4996383;28;20034;-68
2021/03/25 11:51:57;;;;;;;26.50;20.70;;;18.50;33.50;;;;;;4989903;28;20046;-69
2021/03/25 11:54:30;;;;;;;30.33;21.35;;;18.50;34.20;;;;;;4997840;28;20112;-69
2021/03/25 11:57:16;;;;;;;30.60;21.42;;;18.70;33.10;;;;;;4979957;28;20034;-69
2021/03/25 11:59:42;;;;;;;25.92;20.67;;;18.90;32.60;;;;;;4990623;28;20046;-69
2021/03/25 12:02:17;;;;;;;28.85;22.35;;;18.80;32.90;;;;;;4990213;28;20050;-68
2021/03/25 12:04:43;;;;;;;29.63;21.70;;;18.90;32.70;;;;;;4998104;28;20487;-69
2021/03/25 12:07:09;;;;;;;34.65;25.48;;;19.00;32.50;;;;;;5003219;28;20157;-69
2021/03/25 12:09:35;;;;;;;33.83;22.90;;;19.20;31.30;;;;;;4996137;28;20042;-69
2021/03/25 12:12:01;;;;;;;30.63;22.27;;;19.30;31.50;;;;;;5003583;28;20496;-69
2021/03/25 12:14:28;;;;;;;27.55;21.67;;;19.50;31.20;;;;;;4999465;28;20123;-69
2021/03/25 12:16:57;;;;;;;31.58;21.48;;;19.80;30.30;;;;;;5001455;28;20279;-69
2021/03/25 12:19:24;;;;;;;30.60;21.45;;;20.40;29.90;;;;;;4992780;28;20048;-70
2021/03/25 12:21:50;;;;;;;34.50;23.98;;;23.20;26.80;;;;;;4999462;28;20045;-70
2021/03/25 12:24:16;;;;;;;36.50;23.80;;;26.90;23.10;;;;;;4988819;28;20045;-69
2021/03/25 12:26:42;;;;;;;33.05;24.30;;;29.70;20.50;;;;;;4993600;28;20039;-70
2021/03/25 12:29:08;;;;;;;34.47;24.60;;;31.40;19.00;;;;;;4992455;28;20042;-67
2021/03/25 12:31:39;;;;;;;26.83;22.58;;;31.50;17.40;;;;;;5000416;28;20042;-68
2021/03/25 12:34:06;;;;;;;33.65;25.15;;;33.10;16.30;;;;;;4992569;28;20062;-69
2021/03/25 12:36:37;;;;;;;32.55;25.75;;;33.70;15.70;;;;;;5001884;28;20450;-69
2021/03/25 12:39:07;;;;;;;32.88;25.38;;;32.80;16.30;;;;;;4990486;28;20042;-69
2021/03/25 12:41:44;;;;;;;35.80;27.10;;;34.10;15.90;;;;;;4993750;28;20132;-70
2021/03/25 12:44:13;;;;;;;32.30;26.30;;;32.70;15.40;;;;;;4979952;28;20072;-70
2021/03/25 12:46:40;;;;;;;32.60;25.65;;;32.90;16.30;;;;;;4998387;28;20373;-71
2021/03/25 12:49:08;;;;;;;41.45;27.98;;;32.70;16.60;;;;;;4997834;28;20041;-70
2021/03/25 12:51:34;;;;;;;31.75;25.42;;;32.80;16.60;;;;;;5000370;28;20488;-71
2021/03/25 12:54:01;;;;;;;31.25;24.23;;;32.10;16.70;;;;;;4985135;28;20046;-71
2021/03/25 12:56:34;;;;;;;28.73;24.35;;;31.90;16.50;;;;;;4988678;28;20046;-70
2021/03/25 12:59:13;;;;;;;30.02;24.63;;;31.00;15.90;;;;;;4993262;28;20115;-70
2021/03/25 13:01:39;;;;;;;28.15;24.15;;;32.00;15.60;;;;;;5002124;28;20111;-70
2021/03/25 13:04:05;;;;;;;29.85;23.75;;;34.10;15.70;;;;;;5006376;28;20030;-70
2021/03/25 13:06:31;;;;;;;33.47;25.58;;;34.70;15.10;;;;;;4993298;28;20129;-70
2021/03/25 13:08:57;;;;;;;28.42;25.10;;;33.50;15.90;;;;;;4997152;28;20045;-71
2021/03/25 13:11:26;;;;;;;29.65;23.83;;;34.00;15.60;;;;;;4993310;28;20549;-71
2021/03/25 13:13:59;;;;;;;29.88;25.33;;;34.60;15.40;;;;;;4989536;28;20554;-71
2021/03/25 13:16:25;;;;;;;32.45;26.27;;;34.20;14.40;;;;;;4989350;28;20050;-70
2021/03/25 13:18:51;;;;;;;29.88;24.75;;;35.10;14.80;;;;;;4997649;28;20046;-70